Time;durP1;ratioP1;P1;durP2;ratioP2;P2;SDS_P1;SDS_P2;PMS_P1;PMS_P2;Temp;Humidity;BMP_temperature;BMP_pressure;BME280_temperature;BME280_humidity;BME280_pressure;Samples;Min_cycle;Max_cycle;Signal;HPM_P1;HPM_P2
2022/01/08 00:02:27;;;;;;;6.80;3.50;;;23.80;49.30;;;;;;215221;1296;22623;-58
2022/01/08 00:07:42;;;;;;;6.70;3.40;;;23.80;49.40;;;;;;215642;1293;22669;-60
2022/01/08 00:12:51;;;;;;;5.30;2.90;;;23.70;49.40;;;;;;215567;1293;24804;-61
2022/01/08 00:17:56;;;;;;;5.80;3.30;;;23.60;49.40;;;;;;215350;1293;22624;-58
2022/01/08 00:23:02;;;;;;;6.10;2.90;;;23.60;49.40;;;;;;215176;1296;22815;-59
2022/01/08 00:28:06;;;;;;;7.10;3.10;;;23.50;49.30;;;;;;215639;1296;24288;-60
2022/01/08 00:33:14;;;;;;;7.80;3.00;;;23.50;49.20;;;;;;215086;1296;22625;-60
2022/01/08 00:38:55;;;;;;;5.20;3.10;;;23.50;49.00;;;;;;215671;1293;24559;-60
2022/01/08 00:44:16;;;;;;;5.90;3.10;;;23.60;48.90;;;;;;215096;1293;24326;-59
2022/01/08 00:49:37;;;;;;;5.40;2.90;;;23.60;48.60;;;;;;215181;1293;25985;-59
2022/01/08 00:54:46;;;;;;;6.00;2.80;;;23.80;48.60;;;;;;215297;1293;25398;-58
2022/01/08 00:59:58;;;;;;;5.10;2.90;;;23.90;47.60;;;;;;215620;1293;26531;-59
2022/01/08 01:05:10;;;;;;;6.50;2.90;;;23.90;48.10;;;;;;215086;1293;24263;-58
2022/01/08 01:10:20;;;;;;;5.10;2.70;;;23.80;47.70;;;;;;215241;1296;25616;-57
2022/01/08 01:15:27;;;;;;;5.10;3.00;;;23.80;47.80;;;;;;215710;1293;22625;-58
2022/01/08 01:20:43;;;;;;;5.40;3.20;;;23.80;47.90;;;;;;215539;1293;22582;-60
2022/01/08 01:25:58;;;;;;;5.00;2.90;;;23.70;47.90;;;;;;215631;1293;22616;-60
2022/01/08 01:47:16;;;;;;;5.90;2.90;;;23.70;47.50;;;;;;215719;1293;25866;-59
2022/01/08 01:52:35;;;;;;;4.60;2.80;;;23.70;47.80;;;;;;215468;1293;23072;-59
2022/01/08 01:57:41;;;;;;;5.80;3.20;;;23.60;47.40;;;;;;215196;1296;24410;-58
2022/01/08 02:02:54;;;;;;;4.60;2.50;;;23.70;47.40;;;;;;215399;1293;22608;-60
2022/01/08 02:08:04;;;;;;;5.30;3.00;;;23.70;47.30;;;;;;215358;1293;23066;-60
2022/01/08 02:13:22;;;;;;;5.90;3.00;;;23.70;47.20;;;;;;215712;1293;22568;-59
2022/01/08 02:18:34;;;;;;;5.70;2.80;;;23.80;46.90;;;;;;215211;1293;24175;-60
2022/01/08 02:23:42;;;;;;;6.10;2.60;;;23.90;47.10;;;;;;215134;1293;25656;-59
2022/01/08 02:28:46;;;;;;;4.20;2.40;;;23.90;47.00;;;;;;215036;1296;25667;-59
2022/01/08 02:33:50;;;;;;;4.30;2.70;;;23.80;46.90;;;;;;214891;1296;25181;-58
2022/01/08 02:38:53;;;;;;;5.80;2.60;;;23.80;46.90;;;;;;215198;1293;24281;-58
2022/01/08 02:43:57;;;;;;;5.50;3.20;;;23.80;47.10;;;;;;215099;1293;23112;-58
2022/01/08 02:49:01;;;;;;;4.50;2.50;;;23.80;47.10;;;;;;215184;1296;25361;-60
2022/01/08 02:54:09;;;;;;;3.80;2.30;;;23.70;47.10;;;;;;215197;1293;24331;-59
2022/01/08 02:59:13;;;;;;;4.90;2.40;;;23.70;47.20;;;;;;215007;1296;24345;-60
2022/01/08 03:04:17;;;;;;;4.40;2.80;;;23.70;47.00;;;;;;215105;1296;22598;-59
2022/01/08 03:09:21;;;;;;;5.20;2.30;;;23.70;46.90;;;;;;215086;1293;22601;-61
2022/01/08 03:14:24;;;;;;;5.10;2.20;;;23.70;46.90;;;;;;214997;1296;25265;-59
2022/01/08 03:19:28;;;;;;;4.10;2.50;;;23.80;46.70;;;;;;214819;1296;23176;-59
2022/01/08 03:24:33;;;;;;;6.60;2.60;;;23.80;46.60;;;;;;214961;1293;24291;-58
2022/01/08 03:29:36;;;;;;;3.70;2.60;;;23.80;46.40;;;;;;215141;1294;22628;-60
2022/01/08 03:34:40;;;;;;;4.80;2.40;;;23.80;46.70;;;;;;214945;1296;24607;-61
2022/01/08 03:39:44;;;;;;;5.80;2.40;;;23.80;46.50;;;;;;215171;1293;24467;-59
2022/01/08 03:45:03;;;;;;;4.20;2.50;;;23.80;46.60;;;;;;215109;1293;24314;-60
2022/01/08 03:50:09;;;;;;;4.20;2.30;;;23.80;46.60;;;;;;215208;1293;22747;-61
2022/01/08 03:55:22;;;;;;;4.50;2.90;;;23.80;46.60;;;;;;215369;1293;22673;-60
2022/01/08 04:00:28;;;;;;;4.50;2.50;;;23.70;46.60;;;;;;215476;1293;22736;-57
2022/01/08 04:05:38;;;;;;;3.80;2.60;;;23.70;46.80;;;;;;215548;1293;22598;-59
2022/01/08 04:10:48;;;;;;;4.90;2.40;;;23.70;46.60;;;;;;215182;1292;22720;-58
2022/01/08 04:16:06;;;;;;;4.40;2.40;;;23.70;46.90;;;;;;215064;1294;24074;-59
2022/01/08 04:26:39;;;;;;;5.70;2.70;;;23.70;46.40;;;;;;215384;1293;22696;-58
2022/01/08 04:31:45;;;;;;;3.40;2.10;;;23.80;46.40;;;;;;215403;1293;24334;-58
2022/01/08 04:36:57;;;;;;;4.70;2.60;;;23.80;46.30;;;;;;215255;1293;22844;-60
2022/01/08 04:42:03;;;;;;;4.20;2.60;;;23.90;46.50;;;;;;215310;1293;25683;-58
2022/01/08 04:47:06;;;;;;;4.60;2.50;;;23.90;46.40;;;;;;215439;1293;22750;-59
2022/01/08 04:52:10;;;;;;;3.60;2.20;;;23.90;46.00;;;;;;215395;1293;22957;-59
2022/01/08 04:57:18;;;;;;;3.90;2.60;;;23.90;46.30;;;;;;215185;1296;25548;-60
2022/01/08 05:02:21;;;;;;;4.80;2.60;;;23.80;46.10;;;;;;215015;1296;25507;-60
2022/01/08 05:07:25;;;;;;;3.90;2.30;;;23.80;46.10;;;;;;214948;1296;25615;-58
2022/01/08 05:12:31;;;;;;;4.00;2.30;;;23.80;46.20;;;;;;214912;1296;22638;-60
2022/01/08 05:17:35;;;;;;;3.70;2.40;;;23.80;46.20;;;;;;215108;1296;24332;-60
2022/01/08 05:22:59;;;;;;;3.90;2.30;;;23.80;46.20;;;;;;214900;1298;22992;-59
2022/01/08 05:28:05;;;;;;;3.90;2.40;;;23.80;46.20;;;;;;215025;1295;24334;-60
2022/01/08 05:33:08;;;;;;;5.00;2.80;;;23.70;46.30;;;;;;215397;1295;22598;-57
2022/01/08 05:38:12;;;;;;;5.60;2.30;;;23.70;46.20;;;;;;214937;1296;23835;-59
2022/01/08 05:43:16;;;;;;;4.20;2.40;;;23.70;46.10;;;;;;215014;1298;22732;-58
2022/01/08 05:48:21;;;;;;;3.60;2.10;;;23.70;46.00;;;;;;215011;1297;24312;-60
2022/01/08 05:53:25;;;;;;;3.80;2.20;;;23.80;46.10;;;;;;214826;1299;333268;-59
2022/01/08 05:58:28;;;;;;;5.20;2.30;;;23.90;45.80;;;;;;214985;1298;25365;-61
2022/01/08 06:03:32;;;;;;;4.20;2.40;;;23.80;46.00;;;;;;215229;1293;24412;-61
2022/01/08 06:08:36;;;;;;;4.00;2.50;;;23.90;45.80;;;;;;215080;1298;22651;-59
2022/01/08 06:13:39;;;;;;;4.60;2.60;;;24.00;45.70;;;;;;215083;1297;22703;-60
2022/01/08 06:18:43;;;;;;;4.00;2.30;;;23.90;45.80;;;;;;215143;1294;22791;-60
2022/01/08 06:23:47;;;;;;;5.60;2.80;;;23.90;46.00;;;;;;215230;1296;24290;-60
2022/01/08 06:28:51;;;;;;;4.00;2.40;;;23.80;46.10;;;;;;215072;1293;23092;-58
2022/01/08 06:33:55;;;;;;;4.00;2.50;;;23.80;46.10;;;;;;215106;1293;24438;-59
2022/01/08 06:38:59;;;;;;;6.40;2.90;;;23.80;46.20;;;;;;215179;1299;22605;-60
2022/01/08 06:44:04;;;;;;;5.50;3.00;;;23.80;46.00;;;;;;214982;1297;22593;-60
2022/01/08 06:49:09;;;;;;;5.70;2.90;;;23.80;46.00;;;;;;215406;1294;23921;-60
2022/01/08 06:54:12;;;;;;;4.70;3.20;;;23.80;46.00;;;;;;215536;1294;22593;-59
2022/01/08 06:59:16;;;;;;;6.40;3.20;;;23.80;46.00;;;;;;215184;1297;24314;-59
2022/01/08 07:04:19;;;;;;;5.10;3.20;;;23.70;46.00;;;;;;214911;1296;25400;-60
2022/01/08 07:09:23;;;;;;;7.50;3.30;;;23.80;46.10;;;;;;214951;1296;22681;-58
2022/01/08 07:14:26;;;;;;;9.50;3.80;;;23.80;46.20;;;;;;214987;1296;24263;-57
2022/01/08 07:19:31;;;;;;;6.80;3.60;;;23.80;46.10;;;;;;215294;1293;22669;-58
2022/01/08 07:24:35;;;;;;;14.10;4.40;;;23.80;46.20;;;;;;215183;1296;23435;-57
2022/01/08 07:29:39;;;;;;;8.90;3.50;;;23.90;46.10;;;;;;214857;1293;25627;-57
2022/01/08 07:34:43;;;;;;;11.70;3.70;;;23.90;46.50;;;;;;214773;1296;24338;-57
2022/01/08 07:39:47;;;;;;;21.50;3.60;;;23.90;46.10;;;;;;215164;1298;24447;-58
2022/01/08 07:44:51;;;;;;;7.70;3.20;;;23.80;46.20;;;;;;215151;1294;24357;-60
2022/01/08 07:49:55;;;;;;;7.60;3.60;;;23.80;46.40;;;;;;215059;1293;22666;-58
2022/01/08 07:55:01;;;;;;;7.80;2.90;;;23.80;46.40;;;;;;214958;1296;22575;-55
2022/01/08 08:00:08;;;;;;;5.20;2.90;;;23.70;46.40;;;;;;215170;1293;24290;-58
2022/01/08 08:05:18;;;;;;;5.00;3.10;;;23.70;46.40;;;;;;214833;1294;25416;-59
2022/01/08 08:10:25;;;;;;;6.80;3.40;;;23.70;46.80;;;;;;214914;1296;24343;-59
2022/01/08 08:15:29;;;;;;;5.60;3.10;;;23.70;46.50;;;;;;215093;1293;25397;-58
2022/01/08 08:20:41;;;;;;;6.00;3.10;;;23.70;47.20;;;;;;215057;1293;25675;-59
2022/01/08 08:25:45;;;;;;;5.60;3.20;;;23.70;46.30;;;;;;214844;1295;22664;-56
2022/01/08 08:30:55;;;;;;;11.40;4.20;;;23.70;46.70;;;;;;214715;1296;24328;-59
2022/01/08 08:36:06;;;;;;;5.00;3.10;;;23.90;46.10;;;;;;214963;1293;22739;-59
2022/01/08 08:41:22;;;;;;;5.70;3.20;;;23.90;46.00;;;;;;214942;1293;25502;-59
2022/01/08 08:46:26;;;;;;;6.30;3.20;;;23.90;46.00;;;;;;214999;1293;22632;-58
2022/01/08 08:51:30;;;;;;;5.40;3.20;;;23.90;46.10;;;;;;214733;1294;22608;-56
2022/01/08 08:56:38;;;;;;;5.50;3.00;;;23.80;46.10;;;;;;214770;1296;22834;-59
2022/01/08 09:01:42;;;;;;;8.20;3.20;;;23.80;46.50;;;;;;215046;1296;25369;-60
2022/01/08 09:06:50;;;;;;;4.80;3.20;;;23.80;46.10;;;;;;215023;1293;25369;-57
2022/01/08 09:12:03;;;;;;;5.40;3.00;;;23.70;46.10;;;;;;214929;1296;22590;-59
2022/01/08 09:17:08;;;;;;;6.50;3.00;;;23.70;46.50;;;;;;215124;1293;22567;-58
2022/01/08 09:22:12;;;;;;;6.60;2.80;;;23.70;46.40;;;;;;215326;1293;26006;-59
2022/01/08 09:27:17;;;;;;;6.50;3.20;;;23.70;46.40;;;;;;215150;1293;24550;-62
2022/01/08 09:32:26;;;;;;;4.80;3.10;;;23.80;46.40;;;;;;214817;1296;28067;-58
2022/01/08 09:37:33;;;;;;;4.30;2.90;;;23.80;46.40;;;;;;214951;1296;22576;-58
2022/01/08 09:42:45;;;;;;;8.80;3.00;;;23.80;46.30;;;;;;215371;1293;25548;-57
2022/01/08 09:47:50;;;;;;;6.20;3.00;;;23.80;46.50;;;;;;215127;1293;22620;-59
2022/01/08 09:52:57;;;;;;;4.50;3.00;;;23.90;46.40;;;;;;214853;1293;22760;-59
2022/01/08 09:58:02;;;;;;;4.60;2.50;;;23.80;46.50;;;;;;215240;1293;22600;-61
2022/01/08 10:03:18;;;;;;;7.20;3.00;;;23.80;46.50;;;;;;214991;1294;22566;-55
2022/01/08 10:08:26;;;;;;;10.00;3.20;;;23.90;46.50;;;;;;215228;1293;22961;-57
2022/01/08 10:13:35;;;;;;;10.90;3.60;;;24.00;47.10;;;;;;215158;1293;22579;-58
2022/01/08 10:18:45;;;;;;;13.30;3.70;;;24.00;46.90;;;;;;215204;1293;24250;-59
2022/01/08 10:23:58;;;;;;;6.40;3.20;;;24.00;48.00;;;;;;215098;1296;22737;-59
2022/01/08 10:29:35;;;;;;;12.00;3.90;;;24.10;48.50;;;;;;215181;1294;24414;-56
2022/01/08 10:34:48;;;;;;;10.50;3.40;;;24.20;49.50;;;;;;217412;1294;22589;-56
2022/01/08 10:39:54;;;;;;;10.00;3.40;;;24.20;49.00;;;;;;214895;1296;24257;-58
2022/01/08 10:45:14;;;;;;;8.10;2.90;;;24.10;49.10;;;;;;215368;1296;22832;-59
2022/01/08 10:50:23;;;;;;;9.00;3.50;;;24.00;49.50;;;;;;215189;1296;25378;-57
2022/01/08 10:55:32;;;;;;;8.10;3.60;;;23.80;49.60;;;;;;215223;1293;25440;-58
2022/01/08 11:00:38;;;;;;;6.10;3.30;;;23.80;49.80;;;;;;215066;1296;24331;-58
2022/01/08 11:06:00;;;;;;;13.90;3.50;;;23.60;49.30;;;;;;215036;1293;24831;-56
2022/01/08 11:11:05;;;;;;;32.00;4.30;;;23.50;49.60;;;;;;215265;1292;22592;-60
2022/01/08 11:16:24;;;;;;;16.40;3.90;;;23.40;48.80;;;;;;215026;1293;23065;-56
2022/01/08 11:21:31;;;;;;;15.60;3.60;;;23.40;48.40;;;;;;215222;1293;24069;-57
2022/01/08 11:26:52;;;;;;;13.30;3.80;;;23.30;48.80;;;;;;215243;1293;22754;-54
2022/01/08 11:32:03;;;;;;;10.90;3.50;;;23.20;48.50;;;;;;215018;1294;23171;-56
2022/01/08 11:37:10;;;;;;;7.70;3.80;;;23.00;48.60;;;;;;215472;1296;25630;-57
2022/01/08 11:42:14;;;;;;;9.10;3.50;;;22.90;48.50;;;;;;215314;1296;22592;-57
2022/01/08 11:47:24;;;;;;;10.70;3.30;;;22.90;48.30;;;;;;215236;1293;24263;-56
2022/01/08 11:52:29;;;;;;;6.40;3.20;;;22.90;48.10;;;;;;215391;1293;24186;-55
2022/01/08 11:57:33;;;;;;;8.10;3.60;;;22.90;48.10;;;;;;215180;1296;22602;-58
2022/01/08 12:02:42;;;;;;;5.40;2.90;;;22.80;47.70;;;;;;215209;1293;26010;-58
2022/01/08 12:07:48;;;;;;;8.30;3.10;;;22.70;47.70;;;;;;215114;1296;24300;-55
2022/01/08 12:12:59;;;;;;;6.00;3.30;;;22.60;47.30;;;;;;214999;1296;25545;-55
2022/01/08 12:18:03;;;;;;;6.20;3.40;;;22.70;47.10;;;;;;215275;1293;25608;-53
2022/01/08 12:23:38;;;;;;;7.90;3.00;;;22.60;47.00;;;;;;215405;1293;24380;-56
2022/01/08 12:28:53;;;;;;;10.20;3.40;;;22.60;46.90;;;;;;215003;1296;26565;-56
2022/01/08 12:34:18;;;;;;;11.30;3.70;;;22.60;46.30;;;;;;215085;1296;24342;-55
2022/01/08 12:39:42;;;;;;;9.60;3.20;;;22.50;46.60;;;;;;215064;1296;22576;-55
2022/01/08 12:45:04;;;;;;;11.30;3.60;;;22.60;46.60;;;;;;215151;1296;22609;-57
2022/01/08 12:50:18;;;;;;;9.60;3.30;;;22.90;46.10;;;;;;215245;1293;24237;-57
2022/01/08 12:55:24;;;;;;;9.70;3.60;;;23.30;45.30;;;;;;215260;1293;26599;-59
2022/01/08 13:00:33;;;;;;;9.10;3.30;;;23.40;44.80;;;;;;215698;1293;25479;-59
2022/01/08 13:05:40;;;;;;;8.90;3.90;;;23.50;44.50;;;;;;215067;1296;25681;-61
2022/01/08 13:10:47;;;;;;;6.20;3.20;;;23.50;43.90;;;;;;215223;1292;24438;-58
2022/01/08 13:15:52;;;;;;;6.60;3.10;;;23.70;43.70;;;;;;215071;1296;24351;-58
2022/01/08 13:21:09;;;;;;;9.00;3.50;;;23.70;43.40;;;;;;215151;1296;24323;-57
2022/01/08 13:26:21;;;;;;;6.50;3.40;;;23.70;43.10;;;;;;215396;1293;22586;-59
2022/01/08 13:32:08;;;;;;;7.60;3.40;;;23.70;42.90;;;;;;215138;1293;26828;-55
2022/01/08 13:37:33;;;;;;;5.60;3.30;;;23.60;42.80;;;;;;215263;1293;25293;-56
2022/01/08 13:42:40;;;;;;;11.20;4.00;;;23.60;43.00;;;;;;215053;1293;22765;-57
2022/01/08 13:47:47;;;;;;;14.90;3.90;;;23.60;42.00;;;;;;215168;1293;22594;-56
2022/01/08 13:52:59;;;;;;;14.00;4.30;;;23.60;42.80;;;;;;215034;1295;22697;-56
2022/01/08 13:58:10;;;;;;;9.50;4.10;;;23.70;42.30;;;;;;214996;1293;26968;-56
2022/01/08 14:03:43;;;;;;;11.20;3.90;;;23.70;42.30;;;;;;214852;1293;26922;-58
2022/01/08 14:08:56;;;;;;;7.10;4.10;;;23.70;43.00;;;;;;215067;1293;22612;-58
2022/01/08 14:14:00;;;;;;;8.30;3.50;;;23.70;42.80;;;;;;215435;1293;22784;-57
2022/01/08 14:19:20;;;;;;;10.20;3.80;;;23.70;43.60;;;;;;215161;1294;25474;-56
2022/01/08 14:24:37;;;;;;;9.60;3.90;;;23.70;44.10;;;;;;214868;1295;22577;-58
2022/01/08 14:29:45;;;;;;;18.40;4.30;;;23.70;43.60;;;;;;215131;1292;22597;-59
2022/01/08 14:34:51;;;;;;;10.20;3.60;;;23.80;43.60;;;;;;215060;1293;25110;-58
2022/01/08 14:39:55;;;;;;;8.40;4.40;;;23.90;43.10;;;;;;215007;1293;24326;-59
2022/01/08 14:45:02;;;;;;;9.90;4.60;;;23.90;43.00;;;;;;215144;1296;24164;-57
2022/01/08 14:50:11;;;;;;;17.60;4.70;;;23.90;43.00;;;;;;215024;1296;25390;-56
2022/01/08 14:55:20;;;;;;;7.80;4.10;;;23.90;43.30;;;;;;215320;1293;23518;-60
2022/01/08 15:00:28;;;;;;;9.90;4.10;;;23.90;43.20;;;;;;215324;1293;22672;-59
2022/01/08 15:05:43;;;;;;;11.70;4.00;;;23.90;43.20;;;;;;215201;1296;24359;-56
2022/01/08 15:10:55;;;;;;;12.10;4.80;;;23.90;44.40;;;;;;215147;1293;22657;-58
2022/01/08 15:15:58;;;;;;;9.40;5.20;;;23.80;45.40;;;;;;215043;1293;24440;-60
2022/01/08 15:21:05;;;;;;;7.10;3.90;;;23.70;46.00;;;;;;215041;1293;22721;-59
2022/01/08 15:26:10;;;;;;;12.20;5.00;;;23.60;46.80;;;;;;215139;1293;24683;-59
2022/01/08 15:31:13;;;;;;;8.40;4.20;;;23.60;46.90;;;;;;215230;1294;22584;-60
2022/01/08 15:36:17;;;;;;;10.20;4.90;;;23.60;47.30;;;;;;215271;1296;28193;-59
2022/01/08 15:41:21;;;;;;;38.80;5.50;;;23.70;47.90;;;;;;215213;1296;25567;-58
2022/01/08 15:46:31;;;;;;;9.50;4.60;;;23.70;48.80;;;;;;215059;1292;22845;-59
2022/01/08 15:51:36;;;;;;;10.90;4.90;;;23.80;49.70;;;;;;214944;1293;22592;-59
2022/01/08 15:56:40;;;;;;;11.50;5.30;;;23.80;50.20;;;;;;215047;1293;22606;-58
2022/01/08 16:01:43;;;;;;;14.20;5.80;;;23.80;51.30;;;;;;215016;1293;22594;-59
2022/01/08 16:06:50;;;;;;;12.40;5.60;;;23.80;52.00;;;;;;215065;1294;22598;-60
2022/01/08 16:11:53;;;;;;;16.10;5.80;;;23.80;53.60;;;;;;215289;1293;25447;-59
2022/01/08 16:16:58;;;;;;;10.20;5.30;;;23.60;52.30;;;;;;215125;1296;24245;-57
2022/01/08 16:22:01;;;;;;;11.80;5.70;;;23.40;51.60;;;;;;215228;1295;25218;-58
2022/01/08 16:27:12;;;;;;;11.60;5.40;;;23.30;51.30;;;;;;215458;1293;24349;-57
2022/01/08 16:32:24;;;;;;;11.80;6.30;;;23.10;52.10;;;;;;215050;1296;22595;-57
2022/01/08 16:37:31;;;;;;;14.00;6.10;;;23.00;52.60;;;;;;215186;1293;24316;-57
2022/01/08 16:42:36;;;;;;;13.20;6.40;;;22.90;53.40;;;;;;214502;1294;25886;-59
2022/01/08 16:47:46;;;;;;;12.00;5.90;;;22.80;53.20;;;;;;215461;1293;25545;-58
2022/01/08 16:52:50;;;;;;;8.20;5.20;;;22.70;52.50;;;;;;215030;1293;22576;-57
2022/01/08 16:57:53;;;;;;;12.80;6.00;;;22.70;52.20;;;;;;215034;1293;25543;-58
2022/01/08 17:02:57;;;;;;;13.50;6.10;;;22.60;52.60;;;;;;215320;1293;22616;-58
2022/01/08 17:08:03;;;;;;;11.70;6.40;;;22.60;52.20;;;;;;214981;1292;22655;-59
2022/01/08 17:13:11;;;;;;;13.50;5.70;;;22.50;51.90;;;;;;214701;1296;24445;-56
2022/01/08 17:18:20;;;;;;;17.50;7.20;;;22.40;51.70;;;;;;215065;1293;22586;-60
2022/01/08 17:23:26;;;;;;;10.50;6.80;;;22.30;52.00;;;;;;215027;1296;22624;-57
2022/01/08 17:28:30;;;;;;;10.80;6.60;;;22.20;52.70;;;;;;215321;1293;25564;-59
2022/01/08 17:33:39;;;;;;;11.60;6.80;;;22.20;52.80;;;;;;214998;1293;24412;-59
2022/01/08 17:38:45;;;;;;;9.60;6.10;;;22.40;51.10;;;;;;215053;1293;25500;-57
2022/01/08 17:43:50;;;;;;;15.30;6.40;;;22.80;50.90;;;;;;215865;1295;22756;-58
2022/01/08 17:48:54;;;;;;;10.20;6.30;;;23.00;50.10;;;;;;214862;1296;22644;-57
2022/01/08 17:53:59;;;;;;;12.80;6.50;;;23.20;49.60;;;;;;214958;1293;171621;-56
2022/01/08 17:59:03;;;;;;;10.10;6.70;;;23.30;49.70;;;;;;215099;1293;24298;-60
2022/01/08 18:04:20;;;;;;;16.10;6.50;;;23.40;49.50;;;;;;214652;1296;22747;-57
2022/01/08 18:09:33;;;;;;;10.80;6.50;;;23.50;49.20;;;;;;215015;1293;22647;-56
2022/01/08 18:14:42;;;;;;;13.60;7.70;;;23.60;49.00;;;;;;215241;1293;22700;-54
2022/01/08 18:19:48;;;;;;;10.80;6.60;;;23.60;48.50;;;;;;215036;1293;22708;-54
2022/01/08 18:24:53;;;;;;;15.40;7.60;;;23.60;49.00;;;;;;214974;1293;22573;-59
2022/01/08 18:29:57;;;;;;;16.10;7.40;;;23.60;48.80;;;;;;214597;1296;25837;-60
2022/01/08 18:35:03;;;;;;;13.70;6.80;;;23.70;48.30;;;;;;214975;1293;22607;-57
2022/01/08 18:40:08;;;;;;;13.30;7.40;;;23.70;48.30;;;;;;215022;1293;24334;-57
2022/01/08 18:45:13;;;;;;;15.90;8.40;;;23.60;48.20;;;;;;215198;1293;22734;-57
2022/01/08 18:50:21;;;;;;;15.10;8.30;;;23.70;48.20;;;;;;214917;1293;24349;-52
2022/01/08 18:55:26;;;;;;;17.80;8.80;;;23.60;48.00;;;;;;215103;1293;22592;-55
2022/01/08 19:00:32;;;;;;;14.50;8.60;;;23.60;47.60;;;;;;215132;1293;22572;-56
2022/01/08 19:05:41;;;;;;;15.50;9.20;;;23.60;47.50;;;;;;215223;1293;24437;-54
2022/01/08 19:10:44;;;;;;;17.20;10.10;;;23.60;47.70;;;;;;214994;1296;22568;-57
2022/01/08 19:15:48;;;;;;;19.80;10.50;;;23.60;47.40;;;;;;214941;1293;23173;-56
2022/01/08 19:20:58;;;;;;;20.30;10.40;;;23.60;46.50;;;;;;215085;1293;25425;-59
2022/01/08 19:26:08;;;;;;;21.90;11.00;;;23.60;47.10;;;;;;214850;1292;22856;-58
2022/01/08 19:31:19;;;;;;;22.60;11.00;;;23.60;47.90;;;;;;215369;1293;22600;-58
2022/01/08 19:36:40;;;;;;;23.80;11.80;;;23.60;47.30;;;;;;214951;1293;22575;-58
2022/01/08 19:41:48;;;;;;;19.30;11.40;;;23.60;48.10;;;;;;215099;1293;24345;-57
2022/01/08 19:47:21;;;;;;;20.40;10.70;;;23.70;48.10;;;;;;215146;1293;22616;-58
2022/01/08 19:52:34;;;;;;;24.70;12.90;;;23.70;48.80;;;;;;215035;1292;24032;-59
2022/01/08 19:57:42;;;;;;;;;;;23.60;48.60;;;;;;215048;1293;23210;-57
2022/01/08 20:02:53;;;;;;;21.10;12.30;;;23.60;47.90;;;;;;215048;1293;23034;-58
2022/01/08 20:08:07;;;;;;;21.30;12.90;;;23.60;48.00;;;;;;214996;1293;25342;-58
2022/01/08 20:13:19;;;;;;;28.90;13.40;;;23.60;47.90;;;;;;215324;1293;24472;-58
2022/01/08 20:18:23;;;;;;;22.70;13.70;;;23.70;47.20;;;;;;215309;1293;27885;-61
2022/01/08 20:23:27;;;;;;;20.90;11.50;;;23.70;47.30;;;;;;215298;1293;26723;-58
2022/01/08 20:28:33;;;;;;;25.40;13.00;;;23.70;47.40;;;;;;214916;1292;23035;-60
2022/01/08 20:33:38;;;;;;;20.40;13.10;;;23.80;47.90;;;;;;215019;1293;23827;-58
2022/01/08 20:38:50;;;;;;;19.00;11.90;;;23.70;47.50;;;;;;215038;1293;24240;-59
2022/01/08 20:43:56;;;;;;;19.50;11.70;;;23.60;47.80;;;;;;215137;1293;22674;-58
2022/01/08 20:48:59;;;;;;;25.80;13.10;;;23.60;47.90;;;;;;215102;1293;25300;-58
2022/01/08 20:54:04;;;;;;;27.90;13.00;;;23.70;50.00;;;;;;215207;1293;22642;-56
2022/01/08 20:59:09;;;;;;;21.00;12.80;;;23.70;49.50;;;;;;215331;1293;22612;-58
2022/01/08 21:04:15;;;;;;;30.80;12.80;;;23.60;49.40;;;;;;214959;1296;23093;-57
2022/01/08 21:09:19;;;;;;;24.90;12.00;;;23.60;51.60;;;;;;215361;1293;22598;-58
2022/01/08 21:14:23;;;;;;;27.00;12.80;;;23.60;51.40;;;;;;215609;1293;25553;-55
2022/01/08 21:19:27;;;;;;;22.70;12.20;;;23.60;50.90;;;;;;215404;1293;24447;-57
2022/01/08 21:24:45;;;;;;;19.50;12.00;;;23.60;49.90;;;;;;215511;1293;22617;-58
2022/01/08 21:30:17;;;;;;;21.70;12.80;;;23.70;49.60;;;;;;215151;1293;25455;-57
2022/01/08 21:35:30;;;;;;;22.90;13.80;;;23.70;48.90;;;;;;215192;1293;22595;-57
2022/01/08 21:40:39;;;;;;;31.20;14.00;;;23.70;48.40;;;;;;215334;1293;22574;-58
2022/01/08 21:45:45;;;;;;;20.00;13.10;;;23.70;48.30;;;;;;215290;1293;22605;-58
2022/01/08 21:50:55;;;;;;;23.50;14.00;;;23.50;48.50;;;;;;215261;1293;25623;-58
2022/01/08 21:56:01;;;;;;;27.40;14.20;;;23.60;48.50;;;;;;215405;1293;24328;-55
2022/01/08 22:01:06;;;;;;;31.30;14.60;;;23.60;48.50;;;;;;216025;1293;22603;-58
2022/01/08 22:06:21;;;;;;;27.10;14.70;;;23.60;50.40;;;;;;215447;1293;25599;-56
2022/01/08 22:11:25;;;;;;;25.00;14.10;;;23.70;50.20;;;;;;215229;1293;22608;-59
2022/01/08 22:16:30;;;;;;;25.80;13.30;;;23.80;50.40;;;;;;215429;1293;25641;-57
2022/01/08 22:21:40;;;;;;;23.80;13.10;;;23.80;50.40;;;;;;215457;1293;24328;-57
2022/01/08 22:26:44;;;;;;;25.20;14.00;;;23.80;50.30;;;;;;215169;1293;25678;-58
2022/01/08 22:31:52;;;;;;;24.30;14.20;;;23.90;50.30;;;;;;215035;1293;24849;-57
2022/01/08 22:36:56;;;;;;;27.20;13.80;;;23.90;50.10;;;;;;215673;1293;25522;-56
2022/01/08 22:42:00;;;;;;;27.20;13.80;;;23.90;50.30;;;;;;215633;1293;22653;-59
2022/01/08 22:47:04;;;;;;;29.40;15.30;;;23.90;50.60;;;;;;215539;1293;24504;-58
2022/01/08 22:52:08;;;;;;;31.00;15.20;;;23.90;50.50;;;;;;215548;1293;25527;-55
2022/01/08 22:57:13;;;;;;;29.40;15.70;;;23.90;51.70;;;;;;215586;1293;23442;-58
2022/01/08 23:02:20;;;;;;;33.10;16.30;;;23.80;51.50;;;;;;215331;1293;22738;-57
2022/01/08 23:07:26;;;;;;;30.80;16.00;;;23.60;51.80;;;;;;214970;1293;22700;-58
2022/01/08 23:12:30;;;;;;;34.70;17.10;;;23.60;53.40;;;;;;215614;1293;25464;-57
2022/01/08 23:17:35;;;;;;;31.30;14.70;;;23.60;53.30;;;;;;215384;1293;22572;-55
2022/01/08 23:22:39;;;;;;;31.30;15.90;;;23.50;53.30;;;;;;215176;1293;25595;-59
2022/01/08 23:27:44;;;;;;;29.80;16.00;;;23.30;53.40;;;;;;215196;1293;25534;-58
2022/01/08 23:32:50;;;;;;;30.40;16.20;;;23.20;53.10;;;;;;215579;1293;22751;-58
2022/01/08 23:37:54;;;;;;;30.90;15.00;;;23.20;53.30;;;;;;215220;1293;26689;-57
2022/01/08 23:42:59;;;;;;;34.60;15.30;;;23.20;55.60;;;;;;215274;1293;22615;-56
2022/01/08 23:48:04;;;;;;;28.40;14.20;;;23.20;54.90;;;;;;215616;1293;22856;-57
2022/01/08 23:53:09;;;;;;;32.80;15.40;;;23.10;55.00;;;;;;215441;1293;22643;-58
2022/01/08 23:58:14;;;;;;;26.40;15.00;;;23.00;54.90;;;;;;215550;1293;24408;-55
